Strona główna
METAR-TAF:

METAR-TAF

Lotnisko :

Odiham, Anglia

Szerokość geograficzna: 51-14N, Długość geograficzna: 000-57W, wysokość: 123 m

Aktualna obserwacja pogody

Raport powstał 59 minut temu, godzina 06:50 UTC
Wiatr 3 kt od zachód
Temperatura 0°C
Wilgotność 93%
Ciśnienie 1048 hPa
Widzialność 10 km lub więcej
Brak chmur poniżej 1500 m i brak chmur cumulonimbus

METAR: EGVO 200650Z 28003KT CAVOK 00/M01 Q1048 NOSIG RMK BLU BLU

czas: 07:49 (07:49 UTC)

Prognoza

Raport powstał 3 godziny i 8 minut temu, godzina 04:41 UTC
Prognoza ważna od 20 godzina 06 UTC do 20 godzina 18 UTC
Wiatr 2 kt od zachodnio-północny zachód
Widzialność 10 km lub więcej
Brak chmur poniżej 1500 m i brak chmur cumulonimbus

TAF: EGVO 200441Z 2006/2018 29002KT CAVOK

Obserwacja i prognoza pogody dla ponad 4000 lotnisk (raport METAR i TAF).

Dostępne stacje oznaczono żółtymi i czerwonymi punktami na mapie.

Najedź kursorem aby zobaczyć nazwę stacji.

Kliknij aby zobaczyć obserwacje i prognozy pogody.

Aby zmienić mapę: kliknij na zielony przycisk z czarnym krzyżykiem, aby powiększyć; na zielony przycisk z myślnikiem, aby pomniejszyć; na zielone strzałki, aby przejść do map sąsiednich.


METAR-TAF: